sensor_id;sensor_type;location;lat;lon;timestamp;pressure;altitude;pressure_sealevel;temperature;humidity
75740;BME280;64357;51.344;6.550;2023-09-07T00:00:59;101493.25;;;19.40;100.00
75740;BME280;64357;51.344;6.550;2023-09-07T00:03:26;101490.09;;;19.32;100.00
75740;BME280;64357;51.344;6.550;2023-09-07T00:05:51;101492.69;;;19.32;100.00
75740;BME280;64357;51.344;6.550;2023-09-07T00:08:19;101491.00;;;19.33;100.00
75740;BME280;64357;51.344;6.550;2023-09-07T00:10:44;101488.94;;;19.29;100.00
75740;BME280;64357;51.344;6.550;2023-09-07T00:13:11;101477.38;;;19.24;100.00
75740;BME280;64357;51.344;6.550;2023-09-07T00:15:38;101486.94;;;19.25;100.00
75740;BME280;64357;51.344;6.550;2023-09-07T00:18:04;101476.56;;;19.25;100.00
75740;BME280;64357;51.344;6.550;2023-09-07T00:20:29;101469.00;;;19.16;100.00
75740;BME280;64357;51.344;6.550;2023-09-07T00:22:55;101483.44;;;19.24;100.00
75740;BME280;64357;51.344;6.550;2023-09-07T00:25:23;101485.72;;;19.43;100.00
75740;BME280;64357;51.344;6.550;2023-09-07T00:27:48;101482.66;;;19.37;100.00
75740;BME280;64357;51.344;6.550;2023-09-07T00:30:13;101479.16;;;19.25;100.00
75740;BME280;64357;51.344;6.550;2023-09-07T00:32:39;101490.97;;;19.21;100.00
75740;BME280;64357;51.344;6.550;2023-09-07T00:35:06;101485.22;;;19.13;100.00
75740;BME280;64357;51.344;6.550;2023-09-07T00:37:34;101485.22;;;19.13;100.00
75740;BME280;64357;51.344;6.550;2023-09-07T00:39:59;101474.63;;;19.10;100.00
75740;BME280;64357;51.344;6.550;2023-09-07T00:42:27;101473.16;;;19.02;100.00
75740;BME280;64357;51.344;6.550;2023-09-07T00:44:53;101465.09;;;18.87;100.00
75740;BME280;64357;51.344;6.550;2023-09-07T00:47:18;101484.88;;;19.09;100.00
75740;BME280;64357;51.344;6.550;2023-09-07T00:49:45;101467.50;;;18.96;100.00
75740;BME280;64357;51.344;6.550;2023-09-07T00:52:11;101458.03;;;18.85;100.00
75740;BME280;64357;51.344;6.550;2023-09-07T00:54:38;101470.06;;;18.84;100.00
75740;BME280;64357;51.344;6.550;2023-09-07T00:57:07;101449.63;;;18.65;100.00
75740;BME280;64357;51.344;6.550;2023-09-07T00:59:34;101470.03;;;18.73;100.00
75740;BME280;64357;51.344;6.550;2023-09-07T01:01:59;101449.38;;;18.62;100.00
75740;BME280;64357;51.344;6.550;2023-09-07T01:04:25;101448.31;;;18.71;100.00
75740;BME280;64357;51.344;6.550;2023-09-07T01:06:54;101473.47;;;18.95;100.00
75740;BME280;64357;51.344;6.550;2023-09-07T01:09:23;101478.53;;;19.05;100.00
75740;BME280;64357;51.344;6.550;2023-09-07T01:11:53;101441.66;;;18.74;100.00
75740;BME280;64357;51.344;6.550;2023-09-07T01:14:21;101436.50;;;18.74;100.00
75740;BME280;64357;51.344;6.550;2023-09-07T01:16:48;101451.06;;;18.84;100.00
75740;BME280;64357;51.344;6.550;2023-09-07T01:19:17;101442.91;;;18.68;100.00
75740;BME280;64357;51.344;6.550;2023-09-07T01:21:42;101464.31;;;18.77;100.00
75740;BME280;64357;51.344;6.550;2023-09-07T01:24:09;101455.06;;;18.58;100.00
75740;BME280;64357;51.344;6.550;2023-09-07T01:26:36;101435.38;;;18.49;100.00
75740;BME280;64357;51.344;6.550;2023-09-07T01:29:07;101442.09;;;18.47;100.00
75740;BME280;64357;51.344;6.550;2023-09-07T01:31:37;101440.72;;;18.40;100.00
75740;BME280;64357;51.344;6.550;2023-09-07T01:34:04;101421.31;;;18.23;100.00
75740;BME280;64357;51.344;6.550;2023-09-07T01:36:30;101448.59;;;18.30;100.00
75740;BME280;64357;51.344;6.550;2023-09-07T01:38:55;101434.44;;;18.15;100.00
75740;BME280;64357;51.344;6.550;2023-09-07T01:41:20;101447.31;;;18.25;100.00
75740;BME280;64357;51.344;6.550;2023-09-07T01:44:44;52833.84;;;-144.65;100.00
75740;BME280;64357;51.344;6.550;2023-09-07T01:47:10;101442.13;;;18.25;100.00
75740;BME280;64357;51.344;6.550;2023-09-07T01:49:35;101429.22;;;18.25;100.00
75740;BME280;64357;51.344;6.550;2023-09-07T01:52:05;101448.81;;;18.33;100.00
75740;BME280;64357;51.344;6.550;2023-09-07T01:54:30;101436.19;;;18.26;100.00
75740;BME280;64357;51.344;6.550;2023-09-07T01:56:56;101441.47;;;18.27;100.00
75740;BME280;64357;51.344;6.550;2023-09-07T01:59:36;101437.38;;;18.19;100.00
75740;BME280;64357;51.344;6.550;2023-09-07T02:02:02;101449.22;;;18.27;100.00
75740;BME280;64357;51.344;6.550;2023-09-07T02:04:30;101448.81;;;18.33;100.00
75740;BME280;64357;51.344;6.550;2023-09-07T02:06:55;101438.44;;;18.33;100.00
75740;BME280;64357;51.344;6.550;2023-09-07T02:09:28;101437.91;;;18.37;100.00
75740;BME280;64357;51.344;6.550;2023-09-07T02:11:54;101444.63;;;18.35;100.00
75740;BME280;64357;51.344;6.550;2023-09-07T02:14:22;101449.53;;;18.42;100.00
75740;BME280;64357;51.344;6.550;2023-09-07T02:16:47;101443.19;;;18.38;100.00
75740;BME280;64357;51.344;6.550;2023-09-07T02:19:13;101440.94;;;18.31;100.00
75740;BME280;64357;51.344;6.550;2023-09-07T02:21:40;101454.88;;;18.33;100.00
75740;BME280;64357;51.344;6.550;2023-09-07T02:24:06;101450.53;;;18.22;100.00
75740;BME280;64357;51.344;6.550;2023-09-07T02:26:31;101437.69;;;18.12;100.00
75740;BME280;64357;51.344;6.550;2023-09-07T02:28:56;101443.09;;;18.15;100.00
75740;BME280;64357;51.344;6.550;2023-09-07T02:31:22;101434.47;;;18.04;100.00
75740;BME280;64357;51.344;6.550;2023-09-07T02:33:49;101440.34;;;18.02;100.00
75740;BME280;64357;51.344;6.550;2023-09-07T02:36:15;101438.94;;;17.95;100.00
75740;BME280;64357;51.344;6.550;2023-09-07T02:38:40;101437.16;;;17.94;100.00
75740;BME280;64357;51.344;6.550;2023-09-07T02:41:06;101446.56;;;17.94;100.00
75740;BME280;64357;51.344;6.550;2023-09-07T02:43:32;101426.22;;;17.76;100.00
75740;BME280;64357;51.344;6.550;2023-09-07T02:46:00;101416.06;;;17.57;100.00
75740;BME280;64357;51.344;6.550;2023-09-07T02:48:34;101437.47;;;17.67;100.00
75740;BME280;64357;51.344;6.550;2023-09-07T02:50:59;101423.97;;;17.59;100.00
75740;BME280;64357;51.344;6.550;2023-09-07T02:53:25;101447.81;;;17.67;100.00
75740;BME280;64357;51.344;6.550;2023-09-07T02:55:50;101432.34;;;17.56;100.00
75740;BME280;64357;51.344;6.550;2023-09-07T02:58:16;101434.78;;;17.65;100.00
75740;BME280;64357;51.344;6.550;2023-09-07T03:00:49;101446.66;;;17.73;100.00
75740;BME280;64357;51.344;6.550;2023-09-07T03:03:15;101443.97;;;17.62;100.00
75740;BME280;64357;51.344;6.550;2023-09-07T03:05:41;101441.25;;;17.60;100.00
75740;BME280;64357;51.344;6.550;2023-09-07T03:08:07;101442.69;;;17.56;100.00
75740;BME280;64357;51.344;6.550;2023-09-07T03:10:36;101411.91;;;17.27;100.00
75740;BME280;64357;51.344;6.550;2023-09-07T03:13:03;101439.47;;;17.49;100.00
75740;BME280;64357;51.344;6.550;2023-09-07T03:15:28;101396.78;;;17.32;100.00
75740;BME280;64357;51.344;6.550;2023-09-07T03:17:54;101437.31;;;17.43;100.00
75740;BME280;64357;51.344;6.550;2023-09-07T03:20:19;101443.78;;;17.38;100.00
75740;BME280;64357;51.344;6.550;2023-09-07T03:22:47;101425.81;;;17.29;100.00
75740;BME280;64357;51.344;6.550;2023-09-07T03:25:13;101434.34;;;17.39;100.00
75740;BME280;64357;51.344;6.550;2023-09-07T03:27:40;101430.84;;;17.38;100.00
75740;BME280;64357;51.344;6.550;2023-09-07T03:30:06;101427.00;;;17.33;100.00
75740;BME280;64357;51.344;6.550;2023-09-07T03:32:33;101436.81;;;17.37;100.00
75740;BME280;64357;51.344;6.550;2023-09-07T03:35:02;101440.81;;;17.33;100.00
75740;BME280;64357;51.344;6.550;2023-09-07T03:37:28;101431.94;;;17.20;100.00
75740;BME280;64357;51.344;6.550;2023-09-07T03:39:55;101443.16;;;17.20;100.00
75740;BME280;64357;51.344;6.550;2023-09-07T03:42:22;101441.59;;;17.22;100.00
75740;BME280;64357;51.344;6.550;2023-09-07T03:44:47;101436.84;;;17.17;100.00
75740;BME280;64357;51.344;6.550;2023-09-07T03:47:15;101440.97;;;17.15;100.00
75740;BME280;64357;51.344;6.550;2023-09-07T03:49:41;101445.53;;;17.07;100.00
75740;BME280;64357;51.344;6.550;2023-09-07T03:52:06;101459.19;;;17.06;100.00
75740;BME280;64357;51.344;6.550;2023-09-07T03:54:32;101446.03;;;16.93;100.00
75740;BME280;64357;51.344;6.550;2023-09-07T03:57:00;101452.59;;;16.99;100.00
75740;BME280;64357;51.344;6.550;2023-09-07T03:59:27;101455.72;;;16.95;100.00
75740;BME280;64357;51.344;6.550;2023-09-07T04:01:54;101443.59;;;16.84;100.00
75740;BME280;64357;51.344;6.550;2023-09-07T04:04:20;101449.53;;;16.83;100.00
75740;BME280;64357;51.344;6.550;2023-09-07T04:06:47;101443.59;;;16.84;100.00
75740;BME280;64357;51.344;6.550;2023-09-07T04:09:13;101442.56;;;16.92;100.00
75740;BME280;64357;51.344;6.550;2023-09-07T04:11:41;101444.13;;;17.00;100.00
75740;BME280;64357;51.344;6.550;2023-09-07T04:14:09;101446.53;;;16.99;100.00
75740;BME280;64357;51.344;6.550;2023-09-07T04:16:38;101447.09;;;16.95;100.00
75740;BME280;64357;51.344;6.550;2023-09-07T04:19:04;101441.25;;;16.97;100.00
75740;BME280;64357;51.344;6.550;2023-09-07T04:21:32;101429.53;;;16.91;100.00
75740;BME280;64357;51.344;6.550;2023-09-07T04:24:01;101440.47;;;16.98;100.00
75740;BME280;64357;51.344;6.550;2023-09-07T04:26:26;101426.94;;;16.81;100.00
75740;BME280;64357;51.344;6.550;2023-09-07T04:28:52;101424.38;;;16.81;100.00
75740;BME280;64357;51.344;6.550;2023-09-07T04:31:18;101437.66;;;16.85;100.00
75740;BME280;64357;51.344;6.550;2023-09-07T04:33:46;101434.56;;;16.79;100.00
75740;BME280;64357;51.344;6.550;2023-09-07T04:36:14;101435.84;;;16.74;100.00
75740;BME280;64357;51.344;6.550;2023-09-07T04:38:46;101444.84;;;16.69;100.00
75740;BME280;64357;51.344;6.550;2023-09-07T04:41:12;101438.00;;;16.69;100.00
75740;BME280;64357;51.344;6.550;2023-09-07T04:43:40;101440.50;;;16.78;100.00
75740;BME280;64357;51.344;6.550;2023-09-07T04:46:06;101439.72;;;16.79;100.00
75740;BME280;64357;51.344;6.550;2023-09-07T04:48:33;101426.66;;;16.67;100.00
75740;BME280;64357;51.344;6.550;2023-09-07T04:51:04;101457.50;;;16.76;100.00
75740;BME280;64357;51.344;6.550;2023-09-07T04:53:32;101429.75;;;16.63;100.00
75740;BME280;64357;51.344;6.550;2023-09-07T04:55:58;101420.88;;;16.60;100.00
75740;BME280;64357;51.344;6.550;2023-09-07T04:58:23;101421.50;;;16.57;100.00
75740;BME280;64357;51.344;6.550;2023-09-07T05:00:49;101430.41;;;16.61;100.00
75740;BME280;64357;51.344;6.550;2023-09-07T05:03:14;101450.16;;;16.70;100.00
75740;BME280;64357;51.344;6.550;2023-09-07T05:05:41;101445.22;;;16.63;100.00
75740;BME280;64357;51.344;6.550;2023-09-07T05:08:10;101464.63;;;16.78;100.00
75740;BME280;64357;51.344;6.550;2023-09-07T05:10:38;101445.22;;;16.63;100.00
75740;BME280;64357;51.344;6.550;2023-09-07T05:13:06;101424.19;;;16.69;100.00
75740;BME280;64357;51.344;6.550;2023-09-07T05:15:31;101439.66;;;16.59;100.00
75740;BME280;64357;51.344;6.550;2023-09-07T05:18:00;101446.03;;;16.83;100.00
75740;BME280;64357;51.344;6.550;2023-09-07T05:20:25;101457.53;;;16.96;100.00
75740;BME280;64357;51.344;6.550;2023-09-07T05:22:52;101465.00;;;16.93;100.00
75740;BME280;64357;51.344;6.550;2023-09-07T05:25:18;101448.22;;;16.88;100.00
75740;BME280;64357;51.344;6.550;2023-09-07T05:27:45;101472.91;;;16.95;100.00
75740;BME280;64357;51.344;6.550;2023-09-07T05:30:12;101456.00;;;16.78;100.00
75740;BME280;64357;51.344;6.550;2023-09-07T05:32:37;101462.81;;;16.77;100.00
75740;BME280;64357;51.344;6.550;2023-09-07T05:35:02;101461.50;;;16.83;100.00
75740;BME280;64357;51.344;6.550;2023-09-07T05:37:28;101469.38;;;16.94;100.00
75740;BME280;64357;51.344;6.550;2023-09-07T05:39:54;101480.25;;;17.00;100.00
75740;BME280;64357;51.344;6.550;2023-09-07T05:42:19;101473.25;;;16.99;100.00
75740;BME280;64357;51.344;6.550;2023-09-07T05:44:45;101485.53;;;17.02;100.00
75740;BME280;64357;51.344;6.550;2023-09-07T05:47:12;101495.69;;;17.11;100.00
75740;BME280;64357;51.344;6.550;2023-09-07T05:49:37;101481.50;;;17.05;100.00
75740;BME280;64357;51.344;6.550;2023-09-07T05:52:03;101494.28;;;17.24;100.00
75740;BME280;64357;51.344;6.550;2023-09-07T05:54:30;101472.75;;;17.14;100.00
75740;BME280;64357;51.344;6.550;2023-09-07T05:56:56;101472.50;;;17.00;100.00
75740;BME280;64357;51.344;6.550;2023-09-07T05:59:21;101494.94;;;17.22;100.00
75740;BME280;64357;51.344;6.550;2023-09-07T06:01:46;101474.00;;;17.29;100.00
75740;BME280;64357;51.344;6.550;2023-09-07T06:04:12;101474.09;;;17.41;100.00
75740;BME280;64357;51.344;6.550;2023-09-07T06:06:38;101483.28;;;17.47;100.00
75740;BME280;64357;51.344;6.550;2023-09-07T06:09:03;101491.88;;;17.58;100.00
75740;BME280;64357;51.344;6.550;2023-09-07T06:11:29;101483.00;;;17.54;100.00
75740;BME280;64357;51.344;6.550;2023-09-07T06:13:57;101496.41;;;17.71;100.00
75740;BME280;64357;51.344;6.550;2023-09-07T06:16:23;101498.16;;;17.82;100.00
75740;BME280;64357;51.344;6.550;2023-09-07T06:18:48;101502.03;;;17.87;100.00
75740;BME280;64357;51.344;6.550;2023-09-07T06:21:18;101489.66;;;17.83;100.00
75740;BME280;64357;51.344;6.550;2023-09-07T06:23:45;101481.75;;;17.81;100.00
75740;BME280;64357;51.344;6.550;2023-09-07T06:26:13;101491.16;;;17.91;100.00
75740;BME280;64357;51.344;6.550;2023-09-07T06:28:39;101507.94;;;18.06;100.00
75740;BME280;64357;51.344;6.550;2023-09-07T06:31:04;101500.88;;;18.16;100.00
75740;BME280;64357;51.344;6.550;2023-09-07T06:33:32;101494.03;;;18.16;100.00
75740;BME280;64357;51.344;6.550;2023-09-07T06:35:59;101511.38;;;18.39;100.00
75740;BME280;64357;51.344;6.550;2023-09-07T06:38:27;101511.84;;;18.45;100.00
75740;BME280;64357;51.344;6.550;2023-09-07T06:40:52;101495.25;;;18.53;100.00
75740;BME280;64357;51.344;6.550;2023-09-07T06:43:17;101516.31;;;18.80;100.00
75740;BME280;64357;51.344;6.550;2023-09-07T06:45:45;101507.16;;;18.73;100.00
75740;BME280;64357;51.344;6.550;2023-09-07T06:48:18;101490.28;;;19.00;100.00
75740;BME280;64357;51.344;6.550;2023-09-07T06:50:44;101509.22;;;19.34;100.00
75740;BME280;64357;51.344;6.550;2023-09-07T06:53:09;101519.63;;;19.58;100.00
75740;BME280;64357;51.344;6.550;2023-09-07T06:55:34;101519.19;;;19.75;100.00
75740;BME280;64357;51.344;6.550;2023-09-07T06:58:00;101524.84;;;19.81;99.42
75740;BME280;64357;51.344;6.550;2023-09-07T07:00:32;101521.22;;;19.91;97.45
75740;BME280;64357;51.344;6.550;2023-09-07T07:03:20;101511.41;;;19.98;95.97
75740;BME280;64357;51.344;6.550;2023-09-07T07:05:48;101519.09;;;19.97;95.84
75740;BME280;64357;51.344;6.550;2023-09-07T07:08:14;101528.66;;;20.10;92.78
75740;BME280;64357;51.344;6.550;2023-09-07T07:10:39;101522.78;;;20.24;90.29
75740;BME280;64357;51.344;6.550;2023-09-07T07:13:10;101531.84;;;20.42;89.82
75740;BME280;64357;51.344;6.550;2023-09-07T07:15:40;101533.00;;;20.46;89.34
75740;BME280;64357;51.344;6.550;2023-09-07T07:18:08;101532.53;;;20.52;88.30
75740;BME280;64357;51.344;6.550;2023-09-07T07:20:42;101525.88;;;20.55;87.47
75740;BME280;64357;51.344;6.550;2023-09-07T07:23:08;101525.59;;;20.75;86.08
75740;BME280;64357;51.344;6.550;2023-09-07T07:25:36;101533.94;;;20.96;85.81
75740;BME280;64357;51.344;6.550;2023-09-07T07:28:03;101533.69;;;21.05;83.80
75740;BME280;64357;51.344;6.550;2023-09-07T07:30:36;101525.69;;;21.15;82.16
75740;BME280;64357;51.344;6.550;2023-09-07T07:33:03;101512.69;;;21.15;82.25
75740;BME280;64357;51.344;6.550;2023-09-07T07:35:30;101500.03;;;21.20;82.62
75740;BME280;64357;51.344;6.550;2023-09-07T07:37:55;101502.22;;;21.27;82.08
75740;BME280;64357;51.344;6.550;2023-09-07T07:40:21;101512.16;;;21.33;82.19
75740;BME280;64357;51.344;6.550;2023-09-07T07:42:47;101502.56;;;21.32;80.80
75740;BME280;64357;51.344;6.550;2023-09-07T07:45:13;101526.00;;;21.58;81.12
75740;BME280;64357;51.344;6.550;2023-09-07T07:47:40;101536.09;;;21.67;80.23
75740;BME280;64357;51.344;6.550;2023-09-07T07:50:06;101536.31;;;21.83;79.91
75740;BME280;64357;51.344;6.550;2023-09-07T07:52:34;101541.53;;;21.83;80.05
75740;BME280;64357;51.344;6.550;2023-09-07T07:55:00;101523.72;;;21.76;79.68
75740;BME280;64357;51.344;6.550;2023-09-07T07:57:28;101530.00;;;21.93;79.84
75740;BME280;64357;51.344;6.550;2023-09-07T07:59:55;101528.81;;;22.01;78.84
75740;BME280;64357;51.344;6.550;2023-09-07T08:02:24;101521.28;;;22.05;79.12
75740;BME280;64357;51.344;6.550;2023-09-07T08:04:58;101533.22;;;22.15;78.80
75740;BME280;64357;51.344;6.550;2023-09-07T08:07:27;101533.00;;;22.25;79.12
75740;BME280;64357;51.344;6.550;2023-09-07T08:09:57;101529.50;;;22.25;78.05
75740;BME280;64357;51.344;6.550;2023-09-07T08:12:25;101524.47;;;22.41;78.04
75740;BME280;64357;51.344;6.550;2023-09-07T08:14:55;101529.75;;;22.43;78.16
75740;BME280;64357;51.344;6.550;2023-09-07T08:17:23;101524.63;;;22.57;77.24
75740;BME280;64357;51.344;6.550;2023-09-07T08:19:49;101519.88;;;22.65;76.84
75740;BME280;64357;51.344;6.550;2023-09-07T08:22:20;101512.06;;;22.80;75.51
75740;BME280;64357;51.344;6.550;2023-09-07T08:24:45;101519.34;;;22.71;75.63
75740;BME280;64357;51.344;6.550;2023-09-07T08:27:12;101515.72;;;22.69;76.79
75740;BME280;64357;51.344;6.550;2023-09-07T08:29:43;101524.47;;;22.69;76.96
75740;BME280;64357;51.344;6.550;2023-09-07T08:32:13;101500.84;;;22.94;75.95
75740;BME280;64357;51.344;6.550;2023-09-07T08:34:42;101504.41;;;22.96;75.53
75740;BME280;64357;51.344;6.550;2023-09-07T08:37:08;101504.97;;;23.20;75.44
75740;BME280;64357;51.344;6.550;2023-09-07T08:39:37;101498.16;;;23.22;75.13
75740;BME280;64357;51.344;6.550;2023-09-07T08:42:05;101504.19;;;23.36;75.16
75740;BME280;64357;51.344;6.550;2023-09-07T08:44:32;101487.91;;;23.40;74.61
75740;BME280;64357;51.344;6.550;2023-09-07T08:46:59;101489.25;;;23.48;75.45
75740;BME280;64357;51.344;6.550;2023-09-07T08:49:29;101501.25;;;23.90;73.41
75740;BME280;64357;51.344;6.550;2023-09-07T08:52:01;101509.94;;;24.37;71.16
75740;BME280;64357;51.344;6.550;2023-09-07T08:54:31;101488.50;;;24.59;69.44
75740;BME280;64357;51.344;6.550;2023-09-07T08:56:57;101501.63;;;24.93;66.87
75740;BME280;64357;51.344;6.550;2023-09-07T08:59:25;101511.75;;;25.55;64.55
75740;BME280;64357;51.344;6.550;2023-09-07T09:01:56;101516.22;;;26.10;62.27
75740;BME280;64357;51.344;6.550;2023-09-07T09:06:54;101514.13;;;26.78;59.30
75740;BME280;64357;51.344;6.550;2023-09-07T09:09:23;101506.00;;;27.32;56.80
75740;BME280;64357;51.344;6.550;2023-09-07T09:11:49;101507.19;;;27.61;56.14
75740;BME280;64357;51.344;6.550;2023-09-07T09:14:18;101503.38;;;27.32;56.21
75740;BME280;64357;51.344;6.550;2023-09-07T09:16:52;101511.41;;;27.99;54.39
75740;BME280;64357;51.344;6.550;2023-09-07T09:19:17;101505.47;;;29.21;49.96
75740;BME280;64357;51.344;6.550;2023-09-07T09:21:46;101514.72;;;29.88;48.21
75740;BME280;64357;51.344;6.550;2023-09-07T09:24:12;101521.31;;;28.29;51.28
75740;BME280;64357;51.344;6.550;2023-09-07T09:26:37;101520.00;;;27.95;51.69
75740;BME280;64357;51.344;6.550;2023-09-07T09:29:05;101515.88;;;28.02;51.70
75740;BME280;64357;51.344;6.550;2023-09-07T09:31:32;101517.94;;;28.09;51.61
75740;BME280;64357;51.344;6.550;2023-09-07T09:33:59;101513.00;;;28.63;49.66
75740;BME280;64357;51.344;6.550;2023-09-07T09:36:33;101508.69;;;28.41;49.89
75740;BME280;64357;51.344;6.550;2023-09-07T09:38:59;101514.50;;;28.32;50.38
75740;BME280;64357;51.344;6.550;2023-09-07T09:41:25;101492.50;;;28.54;49.58
75740;BME280;64357;51.344;6.550;2023-09-07T09:43:52;101501.31;;;29.03;48.51
75740;BME280;64357;51.344;6.550;2023-09-07T09:46:21;101505.19;;;29.65;46.97
75740;BME280;64357;51.344;6.550;2023-09-07T09:48:47;101501.00;;;28.93;48.53
75740;BME280;64357;51.344;6.550;2023-09-07T09:51:14;101496.16;;;29.57;46.35
75740;BME280;64357;51.344;6.550;2023-09-07T09:53:42;101492.97;;;29.67;46.06
75740;BME280;64357;51.344;6.550;2023-09-07T09:56:10;101495.84;;;29.22;47.03
75740;BME280;64357;51.344;6.550;2023-09-07T09:58:37;101492.56;;;29.82;45.35
75740;BME280;64357;51.344;6.550;2023-09-07T10:01:04;101491.94;;;29.62;45.22
75740;BME280;64357;51.344;6.550;2023-09-07T10:03:40;101480.41;;;29.07;47.13
75740;BME280;64357;51.344;6.550;2023-09-07T10:06:22;101482.47;;;29.16;47.11
75740;BME280;64357;51.344;6.550;2023-09-07T10:09:05;101479.72;;;30.81;43.39
75740;BME280;64357;51.344;6.550;2023-09-07T10:11:38;101483.88;;;30.13;44.73
75740;BME280;64357;51.344;6.550;2023-09-07T10:14:07;101476.38;;;30.88;43.35
75740;BME280;64357;51.344;6.550;2023-09-07T10:16:42;101472.00;;;31.94;40.79
75740;BME280;64357;51.344;6.550;2023-09-07T10:19:18;101471.88;;;29.94;44.63
75740;BME280;64357;51.344;6.550;2023-09-07T10:21:44;101451.72;;;29.96;44.41
75740;BME280;64357;51.344;6.550;2023-09-07T10:24:10;101461.75;;;30.68;44.04
75740;BME280;64357;51.344;6.550;2023-09-07T10:26:36;101463.34;;;32.01;41.25
75740;BME280;64357;51.344;6.550;2023-09-07T10:29:01;101454.06;;;30.75;42.88
75740;BME280;64357;51.344;6.550;2023-09-07T10:31:29;101456.78;;;31.12;42.19
75740;BME280;64357;51.344;6.550;2023-09-07T10:34:15;101458.16;;;30.66;42.42
75740;BME280;64357;51.344;6.550;2023-09-07T10:36:42;101457.44;;;30.40;43.13
75740;BME280;64357;51.344;6.550;2023-09-07T10:39:07;101457.31;;;31.31;41.46
75740;BME280;64357;51.344;6.550;2023-09-07T10:41:44;101445.47;;;30.21;43.33
75740;BME280;64357;51.344;6.550;2023-09-07T10:44:09;101445.59;;;30.87;42.15
75740;BME280;64357;51.344;6.550;2023-09-07T10:46:39;101442.72;;;30.48;42.65
75740;BME280;64357;51.344;6.550;2023-09-07T10:49:07;101443.97;;;30.92;42.05
75740;BME280;64357;51.344;6.550;2023-09-07T10:51:39;101446.91;;;31.75;39.13
75740;BME280;64357;51.344;6.550;2023-09-07T10:54:13;101451.28;;;30.69;41.21
75740;BME280;64357;51.344;6.550;2023-09-07T10:56:44;101442.50;;;31.38;40.13
75740;BME280;64357;51.344;6.550;2023-09-07T10:59:10;101437.09;;;31.32;40.47
75740;BME280;64357;51.344;6.550;2023-09-07T11:01:38;101429.72;;;30.22;42.42
75740;BME280;64357;51.344;6.550;2023-09-07T11:04:05;101434.16;;;30.87;41.14
75740;BME280;64357;51.344;6.550;2023-09-07T11:06:33;101434.44;;;30.97;41.33
75740;BME280;64357;51.344;6.550;2023-09-07T11:09:04;101447.59;;;32.92;37.77
75740;BME280;64357;51.344;6.550;2023-09-07T11:11:33;101434.38;;;31.30;39.59
75740;BME280;64357;51.344;6.550;2023-09-07T11:13:59;101430.63;;;30.86;41.33
75740;BME280;64357;51.344;6.550;2023-09-07T11:16:28;101407.06;;;30.94;41.38
75740;BME280;64357;51.344;6.550;2023-09-07T11:18:53;101421.13;;;32.92;38.38
75740;BME280;64357;51.344;6.550;2023-09-07T11:21:20;101417.16;;;32.69;37.32
75740;BME280;64357;51.344;6.550;2023-09-07T11:23:45;101409.34;;;31.49;40.17
75740;BME280;64357;51.344;6.550;2023-09-07T11:26:13;101402.63;;;31.26;40.06
75740;BME280;64357;51.344;6.550;2023-09-07T11:28:44;101400.88;;;31.26;40.63
75740;BME280;64357;51.344;6.550;2023-09-07T11:31:10;101400.75;;;31.59;39.89
75740;BME280;64357;51.344;6.550;2023-09-07T11:33:37;101401.13;;;31.78;39.67
75740;BME280;64357;51.344;6.550;2023-09-07T11:36:04;101404.53;;;33.58;36.99
75740;BME280;64357;51.344;6.550;2023-09-07T11:38:35;101406.56;;;34.46;34.75
75740;BME280;64357;51.344;6.550;2023-09-07T11:41:03;101411.13;;;34.58;34.10
75740;BME280;64357;51.344;6.550;2023-09-07T11:43:29;101408.97;;;34.25;34.45
75740;BME280;64357;51.344;6.550;2023-09-07T11:45:54;101409.72;;;34.13;33.55
75740;BME280;64357;51.344;6.550;2023-09-07T11:48:20;101405.41;;;33.59;33.79
75740;BME280;64357;51.344;6.550;2023-09-07T11:50:47;101397.44;;;32.07;36.17
75740;BME280;64357;51.344;6.550;2023-09-07T11:53:15;101396.88;;;32.71;35.75
75740;BME280;64357;51.344;6.550;2023-09-07T11:55:40;101388.06;;;32.70;35.15
75740;BME280;64357;51.344;6.550;2023-09-07T11:58:08;101391.97;;;32.01;36.89
75740;BME280;64357;51.344;6.550;2023-09-07T12:00:36;101387.94;;;31.78;37.56
75740;BME280;64357;51.344;6.550;2023-09-07T12:03:05;101397.75;;;33.20;35.24
75740;BME280;64357;51.344;6.550;2023-09-07T12:05:30;101396.28;;;34.01;34.63
75740;BME280;64357;51.344;6.550;2023-09-07T12:07:56;101393.13;;;34.31;34.13
75740;BME280;64357;51.344;6.550;2023-09-07T12:10:21;101393.59;;;31.95;37.72
75740;BME280;64357;51.344;6.550;2023-09-07T12:12:47;101385.25;;;31.76;38.75
75740;BME280;64357;51.344;6.550;2023-09-07T12:15:15;101380.75;;;33.61;34.92
75740;BME280;64357;51.344;6.550;2023-09-07T12:17:40;101372.94;;;33.72;35.02
75740;BME280;64357;51.344;6.550;2023-09-07T12:20:06;101385.09;;;32.52;36.24
75740;BME280;64357;51.344;6.550;2023-09-07T12:22:36;101374.31;;;31.99;37.69
75740;BME280;64357;51.344;6.550;2023-09-07T12:25:07;101379.34;;;32.30;37.34
75740;BME280;64357;51.344;6.550;2023-09-07T12:27:36;101374.53;;;32.53;36.85
75740;BME280;64357;51.344;6.550;2023-09-07T12:30:04;101373.78;;;32.60;36.40
75740;BME280;64357;51.344;6.550;2023-09-07T12:32:36;101363.47;;;32.30;37.26
75740;BME280;64357;51.344;6.550;2023-09-07T12:35:01;101365.22;;;32.30;37.46
75740;BME280;64357;51.344;6.550;2023-09-07T12:37:27;101357.53;;;31.56;38.03
75740;BME280;64357;51.344;6.550;2023-09-07T12:39:54;101355.84;;;31.59;38.90
75740;BME280;64357;51.344;6.550;2023-09-07T12:42:25;101357.19;;;31.41;38.88
75740;BME280;64357;51.344;6.550;2023-09-07T12:44:50;101353.38;;;30.93;39.04
75740;BME280;64357;51.344;6.550;2023-09-07T12:47:15;101348.63;;;31.92;37.72
75740;BME280;64357;51.344;6.550;2023-09-07T12:49:40;101352.31;;;33.48;35.40